createdAt,value
2019-05-07T00:02:17.687Z,14.50
2019-05-07T00:04:46.818Z,14.27
2019-05-07T00:07:15.799Z,12.37
2019-05-07T00:09:44.633Z,11.53
2019-05-07T00:12:13.588Z,11.77
2019-05-07T00:14:44.336Z,12.33
2019-05-07T00:17:13.163Z,13.47
2019-05-07T00:19:43.299Z,11.97
2019-05-07T00:22:12.658Z,15.13
2019-05-07T00:24:43.044Z,12.50
2019-05-07T00:27:13.087Z,12.57
2019-05-07T00:29:43.765Z,14.27
2019-05-07T00:32:12.717Z,13.97
2019-05-07T00:34:46.237Z,11.63
2019-05-07T00:37:43.242Z,14.17
2019-05-07T00:40:22.576Z,12.53
2019-05-07T00:43:08.026Z,13.00
2019-05-07T00:45:43.397Z,14.80
2019-05-07T00:48:12.699Z,12.57
2019-05-07T00:50:43.304Z,12.47
2019-05-07T00:53:13.183Z,14.13
2019-05-07T00:55:42.365Z,12.07
2019-05-07T00:58:13.274Z,14.27
2019-05-07T01:00:42.298Z,13.03
2019-05-07T01:03:12.844Z,13.63
2019-05-07T01:05:43.201Z,12.23
2019-05-07T01:08:13.218Z,14.50
2019-05-07T01:10:42.289Z,14.43
2019-05-07T01:13:12.565Z,14.03
2019-05-07T01:15:43.172Z,14.00
2019-05-07T01:18:12.543Z,15.67
2019-05-07T01:20:42.299Z,14.67
2019-05-07T01:23:13.432Z,14.60
2019-05-07T01:25:43.069Z,15.20
2019-05-07T01:28:13.232Z,12.03
2019-05-07T01:30:43.215Z,14.67
2019-05-07T01:33:19.887Z,16.30
2019-05-07T01:36:03.721Z,14.20
2019-05-07T01:38:33.229Z,16.03
2019-05-07T01:41:02.951Z,14.27
2019-05-07T01:43:32.252Z,16.00
2019-05-07T01:46:03.175Z,13.70
2019-05-07T01:48:32.318Z,13.47
2019-05-07T01:51:03.383Z,12.03
2019-05-07T01:53:32.441Z,14.07
2019-05-07T01:56:03.218Z,14.57
2019-05-07T01:58:33.111Z,15.80
2019-05-07T02:01:04.633Z,14.70
2019-05-07T02:03:42.484Z,14.47
2019-05-07T02:06:33.745Z,13.97
2019-05-07T02:09:29.914Z,12.37
2019-05-07T02:12:36.180Z,13.63
2019-05-07T02:15:06.255Z,13.27
2019-05-07T02:17:35.249Z,14.03
2019-05-07T02:20:04.788Z,16.73
2019-05-07T02:22:33.656Z,13.47
2019-05-07T02:25:03.393Z,14.43
2019-05-07T02:27:32.844Z,14.07
2019-05-07T02:30:04.339Z,13.60
2019-05-07T02:32:33.598Z,14.53
2019-05-07T02:35:04.112Z,15.53
2019-05-07T02:37:48.636Z,12.20
2019-05-07T02:40:15.806Z,13.23
2019-05-07T02:42:44.715Z,13.37
2019-05-07T02:45:32.951Z,12.47
2019-05-07T02:48:03.352Z,14.73
2019-05-07T02:50:40.147Z,15.77
2019-05-07T02:53:17.522Z,15.27
2019-05-07T02:55:48.067Z,15.03
2019-05-07T02:58:17.414Z,14.13
2019-05-07T03:00:47.324Z,17.50
2019-05-07T03:03:16.158Z,15.93
2019-05-07T03:05:45.072Z,13.57
2019-05-07T03:08:13.993Z,14.13
2019-05-07T03:10:43.705Z,15.50
2019-05-07T03:13:13.752Z,13.87
2019-05-07T03:15:43.795Z,14.63
2019-05-07T03:18:13.818Z,13.57
2019-05-07T03:20:53.525Z,14.13
2019-05-07T03:23:25.852Z,16.10
2019-05-07T03:25:59.648Z,15.87
2019-05-07T03:28:28.658Z,15.57
2019-05-07T03:31:05.964Z,16.30
2019-05-07T03:33:56.323Z,16.97
2019-05-07T03:36:46.581Z,13.97
2019-05-07T03:39:14.145Z,18.10
2019-05-07T03:41:43.380Z,16.67
2019-05-07T03:44:18.442Z,12.30
2019-05-07T03:46:58.184Z,13.57
2019-05-07T03:49:34.146Z,14.23
2019-05-07T03:52:04.253Z,15.37
2019-05-07T03:54:34.000Z,14.80
2019-05-07T03:57:10.901Z,13.83
2019-05-07T03:59:34.592Z,17.47
2019-05-07T04:02:03.556Z,12.83
2019-05-07T04:04:33.345Z,14.03
2019-05-07T04:07:04.922Z,14.00
2019-05-07T04:09:33.785Z,13.40
2019-05-07T04:12:03.912Z,15.40
2019-05-07T04:14:34.427Z,13.83
2019-05-07T04:17:14.315Z,13.77
2019-05-07T04:19:34.432Z,17.87
2019-05-07T04:22:04.444Z,13.97
2019-05-07T04:24:42.925Z,12.47
2019-05-07T04:27:23.827Z,13.60
2019-05-07T04:29:53.228Z,13.23
2019-05-07T04:32:23.998Z,15.73
2019-05-07T04:35:06.747Z,13.50
2019-05-07T04:37:35.947Z,16.40
2019-05-07T04:40:04.862Z,12.70
2019-05-07T04:42:33.748Z,15.43
2019-05-07T04:45:04.312Z,13.30
2019-05-07T04:47:42.528Z,11.87
2019-05-07T04:50:04.360Z,14.10
2019-05-07T04:52:36.069Z,12.53
2019-05-07T04:55:05.851Z,12.13
2019-05-07T04:57:35.086Z,14.17
2019-05-07T05:00:05.378Z,14.47
2019-05-07T05:02:53.078Z,14.23
2019-05-07T05:05:23.565Z,12.87
2019-05-07T05:07:53.356Z,16.40
2019-05-07T05:10:23.808Z,15.03
2019-05-07T05:12:53.650Z,13.97
2019-05-07T05:15:23.239Z,13.27
2019-05-07T05:17:54.042Z,15.57
2019-05-07T05:20:30.872Z,14.37
2019-05-07T05:23:18.725Z,14.40
2019-05-07T05:25:47.635Z,13.63
2019-05-07T05:28:17.395Z,12.93
2019-05-07T05:30:52.723Z,14.63
2019-05-07T05:33:23.272Z,13.20
2019-05-07T05:35:52.593Z,14.40
2019-05-07T05:38:22.303Z,15.10
2019-05-07T05:40:52.133Z,12.13
2019-05-07T05:43:31.958Z,12.87
2019-05-07T05:46:02.759Z,13.03
2019-05-07T05:48:33.294Z,13.23
2019-05-07T05:51:09.298Z,14.30
2019-05-07T05:53:52.445Z,11.80
2019-05-07T05:56:26.939Z,14.20
2019-05-07T05:59:06.315Z,13.83
2019-05-07T06:02:03.404Z,14.30
2019-05-07T06:04:42.029Z,14.67
2019-05-07T06:07:22.551Z,15.53
2019-05-07T06:10:09.792Z,16.30
2019-05-07T06:12:56.019Z,13.73
2019-05-07T06:15:43.806Z,16.57
2019-05-07T06:18:32.732Z,16.00
2019-05-07T06:21:15.401Z,14.93
2019-05-07T06:23:47.615Z,24.77
2019-05-07T06:26:16.517Z,24.17
2019-05-07T06:28:45.380Z,17.13
2019-05-07T06:31:14.327Z,13.87
2019-05-07T06:33:43.584Z,12.50
2019-05-07T06:36:12.828Z,13.00
2019-05-07T06:38:47.758Z,14.43
2019-05-07T06:41:34.869Z,14.07
2019-05-07T06:44:09.497Z,12.43
2019-05-07T06:46:38.834Z,13.53
2019-05-07T06:49:07.999Z,12.63
2019-05-07T06:51:36.962Z,15.03
2019-05-07T06:54:05.808Z,15.27
2019-05-07T06:56:34.623Z,14.53
2019-05-07T06:59:10.197Z,14.33
2019-05-07T07:02:06.982Z,11.57
2019-05-07T07:04:47.120Z,12.57
2019-05-07T07:07:37.222Z,15.43
2019-05-07T07:10:42.681Z,10.43
2019-05-07T07:13:12.028Z,12.40
2019-05-07T07:15:42.708Z,18.73
2019-05-07T07:18:12.323Z,14.17
2019-05-07T07:20:43.021Z,14.03
2019-05-07T07:23:12.202Z,12.23
2019-05-07T07:25:42.989Z,13.03
2019-05-07T07:28:12.446Z,9.97
2019-05-07T07:30:49.167Z,16.17
2019-05-07T07:33:18.338Z,11.53
2019-05-07T07:35:47.147Z,13.33
2019-05-07T07:38:47.412Z,18.57
2019-05-07T07:41:42.174Z,12.93
2019-05-07T07:44:13.221Z,14.67
2019-05-07T07:46:42.503Z,11.53
2019-05-07T07:49:14.963Z,11.60
2019-05-07T07:51:45.178Z,13.37
2019-05-07T07:54:13.090Z,12.50
2019-05-07T07:56:56.752Z,11.80
2019-05-07T07:59:46.683Z,12.90
2019-05-07T08:02:23.166Z,14.67
2019-05-07T08:04:52.785Z,12.80
2019-05-07T08:07:23.868Z,11.53
2019-05-07T08:09:52.694Z,9.70
2019-05-07T08:12:22.142Z,12.60
2019-05-07T08:14:52.002Z,11.30
2019-05-07T08:17:22.392Z,9.10
2019-05-07T08:19:52.087Z,8.37
2019-05-07T08:22:22.661Z,14.17
2019-05-07T08:24:51.991Z,12.13
2019-05-07T08:27:22.194Z,10.27
2019-05-07T08:29:52.496Z,11.50
2019-05-07T08:32:42.580Z,11.83
2019-05-07T08:35:29.617Z,11.97
2019-05-07T08:37:58.693Z,10.33
2019-05-07T08:40:27.533Z,9.20
2019-05-07T08:42:57.024Z,10.53
2019-05-07T08:45:43.763Z,10.07
2019-05-07T08:48:17.194Z,11.57
2019-05-07T08:50:46.010Z,11.50
2019-05-07T08:53:14.854Z,9.63
2019-05-07T08:55:43.747Z,8.03
2019-05-07T08:58:12.617Z,7.97
2019-05-07T09:00:41.813Z,8.57
2019-05-07T09:03:20.099Z,11.57
2019-05-07T09:05:42.618Z,9.93
2019-05-07T09:08:12.856Z,6.93
2019-05-07T09:10:42.297Z,10.43
2019-05-07T09:13:12.581Z,9.63
2019-05-07T09:15:42.489Z,9.27
2019-05-07T09:18:12.433Z,13.67
2019-05-07T09:20:42.540Z,10.10
2019-05-07T09:23:12.230Z,11.63
2019-05-07T09:25:47.867Z,8.17
2019-05-07T09:28:17.209Z,7.47
2019-05-07T09:30:53.802Z,9.50
2019-05-07T09:33:42.279Z,10.13
2019-05-07T09:36:19.643Z,10.20
2019-05-07T09:38:56.727Z,6.87
2019-05-07T09:41:28.445Z,8.87
2019-05-07T09:43:59.129Z,7.47
2019-05-07T09:46:27.968Z,7.77
2019-05-07T09:48:56.913Z,7.50
2019-05-07T09:51:25.688Z,6.00
2019-05-07T09:53:54.687Z,6.00
2019-05-07T09:56:23.546Z,8.57
2019-05-07T09:58:53.059Z,4.73
2019-05-07T10:01:23.696Z,7.13
2019-05-07T10:03:52.851Z,5.70
2019-05-07T10:06:22.908Z,8.17
2019-05-07T10:08:52.441Z,6.93
2019-05-07T10:11:32.903Z,6.67
2019-05-07T10:14:05.438Z,6.97
2019-05-07T10:16:41.843Z,7.30
2019-05-07T10:19:11.008Z,5.17
2019-05-07T10:21:39.900Z,6.73
2019-05-07T10:24:09.311Z,5.20
2019-05-07T10:26:40.144Z,7.53
2019-05-07T10:29:09.287Z,7.27
2019-05-07T10:31:38.189Z,7.50
2019-05-07T10:34:07.360Z,6.50
2019-05-07T10:36:36.154Z,10.03
2019-05-07T10:39:06.234Z,6.33
2019-05-07T10:41:35.027Z,6.80
2019-05-07T10:44:04.628Z,5.90
2019-05-07T10:46:52.659Z,4.93
2019-05-07T10:49:25.477Z,4.97
2019-05-07T10:51:54.857Z,5.47
2019-05-07T10:54:23.693Z,6.03
2019-05-07T10:56:52.596Z,5.87
2019-05-07T10:59:22.500Z,6.30
2019-05-07T11:02:02.437Z,6.53
2019-05-07T11:04:40.172Z,9.33
2019-05-07T11:07:01.970Z,8.10
2019-05-07T11:09:32.681Z,5.70
2019-05-07T11:12:02.610Z,5.50
2019-05-07T11:14:32.139Z,6.10
2019-05-07T11:17:19.044Z,5.67
2019-05-07T11:19:47.819Z,6.93
2019-05-07T11:22:16.633Z,7.13
2019-05-07T11:24:45.445Z,6.93
2019-05-07T11:27:14.435Z,7.57
2019-05-07T11:29:43.452Z,6.53
2019-05-07T11:32:12.772Z,6.57
2019-05-07T11:34:44.281Z,6.50
2019-05-07T11:37:13.410Z,7.47
2019-05-07T11:39:43.715Z,8.00
2019-05-07T11:42:42.684Z,6.30
2019-05-07T11:45:19.084Z,6.30
2019-05-07T11:47:47.942Z,5.30
2019-05-07T11:50:34.100Z,7.30
2019-05-07T11:53:05.751Z,6.50
2019-05-07T11:55:35.058Z,6.10
2019-05-07T11:58:03.896Z,12.60
2019-05-07T12:00:42.643Z,8.67
2019-05-07T12:03:11.805Z,7.10
2019-05-07T12:05:42.266Z,7.83
2019-05-07T12:08:13.070Z,7.00
2019-05-07T12:10:41.823Z,5.90
2019-05-07T12:13:12.639Z,7.73
2019-05-07T12:15:42.877Z,6.60
2019-05-07T12:18:11.998Z,8.07
2019-05-07T12:20:41.615Z,6.87
2019-05-07T12:23:12.188Z,7.63
2019-05-07T12:25:42.317Z,6.83
2019-05-07T12:28:13.086Z,7.50
2019-05-07T12:31:04.413Z,7.17
2019-05-07T12:33:52.200Z,7.67
2019-05-07T12:36:22.745Z,6.83
2019-05-07T12:38:53.304Z,8.53
2019-05-07T12:41:33.930Z,6.90
2019-05-07T12:44:02.911Z,7.13
2019-05-07T12:46:33.502Z,8.60
2019-05-07T12:49:05.190Z,7.77
2019-05-07T12:51:59.366Z,8.97
2019-05-07T12:54:52.643Z,9.20
2019-05-07T12:57:21.951Z,9.67
2019-05-07T12:59:52.929Z,10.43
2019-05-07T13:02:42.024Z,8.17
2019-05-07T13:05:11.771Z,9.23
2019-05-07T13:07:57.758Z,8.47
2019-05-07T13:10:26.674Z,8.07
2019-05-07T13:12:55.676Z,8.53
2019-05-07T13:15:27.857Z,11.03
2019-05-07T13:17:55.195Z,9.20
2019-05-07T13:20:24.493Z,9.87
2019-05-07T13:22:53.550Z,10.17
2019-05-07T13:25:27.707Z,10.73
2019-05-07T13:27:52.891Z,10.07
2019-05-07T13:30:22.336Z,13.30
2019-05-07T13:32:52.594Z,9.93
2019-05-07T13:35:21.723Z,9.77
2019-05-07T13:38:09.552Z,9.60
2019-05-07T13:41:12.861Z,10.23
2019-05-07T13:44:19.806Z,9.13
2019-05-07T13:46:52.868Z,7.90
2019-05-07T13:49:21.939Z,8.83
2019-05-07T13:52:03.157Z,9.87
2019-05-07T13:54:22.386Z,10.90
2019-05-07T13:56:52.511Z,11.93
2019-05-07T13:59:22.429Z,10.10
2019-05-07T14:01:59.635Z,10.30
2019-05-07T14:04:28.404Z,9.90
2019-05-07T14:06:59.223Z,9.67
2019-05-07T14:09:28.362Z,9.23
2019-05-07T14:11:57.430Z,11.85
2019-05-07T14:14:28.169Z,11.70
2019-05-07T14:16:57.274Z,11.37
2019-05-07T14:19:26.355Z,10.13
2019-05-07T14:21:55.279Z,10.07
2019-05-07T14:24:24.222Z,11.17
2019-05-07T14:26:53.152Z,10.93
2019-05-07T14:29:24.715Z,9.73
2019-05-07T14:32:12.817Z,12.37
2019-05-07T14:35:03.711Z,10.70
2019-05-07T14:37:39.113Z,12.77
2019-05-07T14:40:08.105Z,11.70
2019-05-07T14:42:42.290Z,12.10
2019-05-07T14:45:11.329Z,13.17
2019-05-07T14:47:40.164Z,14.57
2019-05-07T14:50:09.373Z,15.15
2019-05-07T14:52:38.717Z,13.50
2019-05-07T14:55:07.608Z,13.43
2019-05-07T14:57:36.795Z,13.50
2019-05-07T15:00:06.117Z,13.87
2019-05-07T15:02:35.048Z,14.43
2019-05-07T15:05:04.209Z,14.43
2019-05-07T15:07:33.017Z,21.13
2019-05-07T15:10:02.321Z,14.87
2019-05-07T15:12:33.046Z,16.70
2019-05-07T15:15:02.268Z,15.17
2019-05-07T15:17:54.490Z,16.13
2019-05-07T15:20:23.468Z,15.83
2019-05-07T15:23:02.548Z,14.07
2019-05-07T15:25:32.410Z,15.80
2019-05-07T15:28:01.768Z,13.63
2019-05-07T15:30:41.664Z,14.70
2019-05-07T15:33:12.706Z,15.27
2019-05-07T15:35:42.429Z,15.13
2019-05-07T15:38:11.974Z,15.57
2019-05-07T15:40:42.304Z,13.63
2019-05-07T15:43:12.925Z,12.60
2019-05-07T15:45:41.980Z,13.77
2019-05-07T15:48:12.551Z,15.00
2019-05-07T15:50:42.881Z,13.30
2019-05-07T15:53:16.855Z,13.80
2019-05-07T15:55:45.693Z,13.13
2019-05-07T15:58:14.541Z,13.50
2019-05-07T16:00:44.019Z,12.73
2019-05-07T16:03:18.059Z,13.90
2019-05-07T16:05:46.944Z,12.97
2019-05-07T16:08:17.223Z,11.93
2019-05-07T16:10:46.070Z,10.73
2019-05-07T16:13:18.770Z,12.43
2019-05-07T16:15:47.913Z,13.93
2019-05-07T16:18:23.660Z,11.93
2019-05-07T16:20:52.272Z,12.33
2019-05-07T16:23:22.051Z,11.37
2019-05-07T16:25:52.810Z,14.17
2019-05-07T16:28:22.065Z,13.57
2019-05-07T16:30:52.118Z,11.37
2019-05-07T16:33:21.301Z,11.97
2019-05-07T16:35:51.298Z,12.77
2019-05-07T16:38:22.117Z,12.30
2019-05-07T16:40:52.213Z,16.13
2019-05-07T16:43:22.125Z,14.17
2019-05-07T16:45:51.871Z,13.87
2019-05-07T16:48:23.120Z,13.33
2019-05-07T16:50:52.306Z,15.20
2019-05-07T16:53:29.328Z,15.90
2019-05-07T16:55:52.925Z,14.00
2019-05-07T16:58:28.252Z,13.27
2019-05-07T17:01:00.896Z,14.60
2019-05-07T17:03:35.847Z,13.37
2019-05-07T17:06:05.034Z,13.30
2019-05-07T17:08:49.060Z,15.60
2019-05-07T17:11:19.106Z,15.63
2019-05-07T17:13:48.537Z,12.40
2019-05-07T17:16:17.559Z,13.53
2019-05-07T17:18:46.474Z,13.53
2019-05-07T17:21:17.176Z,13.67
2019-05-07T17:23:47.854Z,13.37
2019-05-07T17:26:16.870Z,13.43
2019-05-07T17:28:46.373Z,12.50
2019-05-07T17:31:15.529Z,12.93
2019-05-07T17:33:44.818Z,13.43
2019-05-07T17:36:13.787Z,14.27
2019-05-07T17:38:43.237Z,12.53
2019-05-07T17:41:19.978Z,12.83
2019-05-07T17:43:45.289Z,13.40
2019-05-07T17:46:14.394Z,14.37
2019-05-07T17:48:43.454Z,14.17
2019-05-07T17:51:34.760Z,13.90
2019-05-07T17:54:03.838Z,15.20
2019-05-07T17:56:32.820Z,11.73
2019-05-07T17:59:02.900Z,12.50
2019-05-07T18:01:43.409Z,12.23
2019-05-07T18:04:12.586Z,12.80
2019-05-07T18:06:42.782Z,12.03
2019-05-07T18:09:12.656Z,11.33
2019-05-07T18:11:42.909Z,13.37
2019-05-07T18:14:12.143Z,11.77
2019-05-07T18:17:16.363Z,13.27
2019-05-07T18:19:47.756Z,11.80
2019-05-07T18:22:16.938Z,13.30
2019-05-07T18:24:46.057Z,12.83
2019-05-07T18:27:24.136Z,13.67
2019-05-07T18:29:53.893Z,13.00
2019-05-07T18:32:27.105Z,13.53
2019-05-07T18:34:57.822Z,14.20
2019-05-07T18:37:27.994Z,12.33
2019-05-07T18:39:59.707Z,13.97
2019-05-07T18:42:28.870Z,15.37
2019-05-07T18:44:58.279Z,13.83
2019-05-07T18:47:27.772Z,15.20
2019-05-07T18:49:56.836Z,14.40
2019-05-07T18:52:26.215Z,17.23
2019-05-07T18:54:55.372Z,15.87
2019-05-07T18:57:24.645Z,13.60
2019-05-07T18:59:54.185Z,14.13
2019-05-07T19:02:23.485Z,15.67
2019-05-07T19:04:52.711Z,15.77
2019-05-07T19:07:23.026Z,15.67
2019-05-07T19:09:52.431Z,17.20
2019-05-07T19:12:24.188Z,37.27
2019-05-07T19:14:53.288Z,30.40
2019-05-07T19:17:25.653Z,25.83
2019-05-07T19:19:54.257Z,23.03
2019-05-07T19:22:23.263Z,24.93
2019-05-07T19:24:53.036Z,19.67
2019-05-07T19:27:22.210Z,28.10
2019-05-07T19:29:51.318Z,22.63
2019-05-07T19:32:22.906Z,21.70
2019-05-07T19:34:53.390Z,22.40
2019-05-07T19:37:22.537Z,21.20
2019-05-07T19:39:53.237Z,18.37
2019-05-07T19:42:22.412Z,18.23
2019-05-07T19:44:51.945Z,18.23
2019-05-07T19:47:23.274Z,18.90
2019-05-07T19:49:52.553Z,16.37
2019-05-07T19:52:23.106Z,19.07
2019-05-07T19:55:00.847Z,17.97
2019-05-07T19:57:27.460Z,18.67
2019-05-07T19:59:57.036Z,20.43
2019-05-07T20:02:31.978Z,22.07
2019-05-07T20:05:03.303Z,20.00
2019-05-07T20:07:32.390Z,17.07
2019-05-07T20:10:02.721Z,16.70
2019-05-07T20:12:32.670Z,19.17
2019-05-07T20:15:02.756Z,17.90
2019-05-07T20:17:33.554Z,18.50
2019-05-07T20:20:03.165Z,17.03
2019-05-07T20:22:33.370Z,18.13
2019-05-07T20:25:15.393Z,18.43
2019-05-07T20:27:33.504Z,18.83
2019-05-07T20:30:03.208Z,18.40
2019-05-07T20:32:33.035Z,19.30
2019-05-07T20:35:02.816Z,18.07
2019-05-07T20:37:32.958Z,17.90
2019-05-07T20:40:02.964Z,18.07
2019-05-07T20:42:32.825Z,20.67
2019-05-07T20:45:03.013Z,18.30
2019-05-07T20:47:32.745Z,17.93
2019-05-07T20:50:01.799Z,17.03
2019-05-07T20:52:32.573Z,18.60
2019-05-07T20:55:29.027Z,20.17
2019-05-07T20:57:46.485Z,22.30
2019-05-07T21:00:24.355Z,18.33
2019-05-07T21:03:12.522Z,17.20
2019-05-07T21:05:42.306Z,19.13
2019-05-07T21:08:11.936Z,19.97
2019-05-07T21:10:42.644Z,19.10
2019-05-07T21:13:26.380Z,20.07
2019-05-07T21:15:43.481Z,20.23
2019-05-07T21:18:12.559Z,18.53
2019-05-07T21:20:42.213Z,19.00
2019-05-07T21:23:12.212Z,18.83
2019-05-07T21:25:43.445Z,18.73
2019-05-07T21:28:12.331Z,19.93
2019-05-07T21:30:42.677Z,21.87
2019-05-07T21:33:12.130Z,19.93
2019-05-07T21:35:42.873Z,19.50
2019-05-07T21:38:12.635Z,21.00
2019-05-07T21:40:42.822Z,19.77
2019-05-07T21:43:14.046Z,20.20
2019-05-07T21:45:43.142Z,18.83
2019-05-07T21:48:13.690Z,17.97
2019-05-07T21:50:42.881Z,19.90
2019-05-07T21:53:22.880Z,20.20
2019-05-07T21:56:01.672Z,18.37
2019-05-07T21:58:47.670Z,18.97
2019-05-07T22:01:35.706Z,23.57
2019-05-07T22:04:06.384Z,22.80
2019-05-07T22:06:35.412Z,19.63
2019-05-07T22:09:09.140Z,20.90
2019-05-07T22:11:38.778Z,20.70
2019-05-07T22:14:10.034Z,20.50
2019-05-07T22:16:38.982Z,19.80
2019-05-07T22:19:07.934Z,20.10
2019-05-07T22:21:37.008Z,19.73
2019-05-07T22:24:06.121Z,20.33
2019-05-07T22:26:35.165Z,19.57
2019-05-07T22:29:04.061Z,19.67
2019-05-07T22:31:43.883Z,24.23
2019-05-07T22:34:46.024Z,21.57
2019-05-07T22:37:14.943Z,19.70
2019-05-07T22:39:43.937Z,21.10
2019-05-07T22:42:13.964Z,21.00
2019-05-07T22:44:42.939Z,20.83
2019-05-07T22:47:22.696Z,23.40
2019-05-07T22:49:53.527Z,20.17
2019-05-07T22:52:22.563Z,20.57
2019-05-07T22:54:51.690Z,21.17
2019-05-07T22:57:32.592Z,21.60
2019-05-07T23:00:04.512Z,23.53
2019-05-07T23:02:34.438Z,20.30
2019-05-07T23:05:03.437Z,21.23
2019-05-07T23:07:33.216Z,21.97
2019-05-07T23:10:03.051Z,21.00
2019-05-07T23:12:32.793Z,20.80
2019-05-07T23:15:02.693Z,20.97
2019-05-07T23:17:32.639Z,21.47
2019-05-07T23:20:01.731Z,21.33
2019-05-07T23:22:32.415Z,23.43
2019-05-07T23:25:01.396Z,23.30
2019-05-07T23:27:32.374Z,21.47
2019-05-07T23:30:02.617Z,23.57
2019-05-07T23:32:32.945Z,21.33
2019-05-07T23:35:02.218Z,21.93
2019-05-07T23:37:33.139Z,22.10
2019-05-07T23:40:04.872Z,20.83
2019-05-07T23:42:35.659Z,21.43
2019-05-07T23:45:05.028Z,25.73
2019-05-07T23:47:34.032Z,23.73
2019-05-07T23:50:03.088Z,23.20
2019-05-07T23:52:31.950Z,23.37
2019-05-07T23:55:02.919Z,23.73
2019-05-07T23:57:32.523Z,24.97
